sensor_id;sensor_type;location;lat;lon;timestamp;P1;durP1;ratioP1;P2;durP2;ratioP2
70981;SDS011;58640;51.320;9.456;2023-02-13T00:00:15;6.88;;;3.47;;
70981;SDS011;58640;51.320;9.456;2023-02-13T00:02:44;5.60;;;3.45;;
70981;SDS011;58640;51.320;9.456;2023-02-13T00:05:09;7.82;;;3.55;;
70981;SDS011;58640;51.320;9.456;2023-02-13T00:07:34;6.90;;;4.22;;
70981;SDS011;58640;51.320;9.456;2023-02-13T00:10:00;5.35;;;3.92;;
70981;SDS011;58640;51.320;9.456;2023-02-13T00:12:25;5.05;;;3.40;;
70981;SDS011;58640;51.320;9.456;2023-02-13T00:14:50;8.43;;;3.20;;
70981;SDS011;58640;51.320;9.456;2023-02-13T00:17:16;5.32;;;3.75;;
70981;SDS011;58640;51.320;9.456;2023-02-13T00:19:41;7.60;;;3.70;;
70981;SDS011;58640;51.320;9.456;2023-02-13T00:22:07;6.28;;;3.80;;
70981;SDS011;58640;51.320;9.456;2023-02-13T00:24:32;5.95;;;3.28;;
70981;SDS011;58640;51.320;9.456;2023-02-13T00:26:58;6.47;;;3.50;;
70981;SDS011;58640;51.320;9.456;2023-02-13T00:29:23;5.10;;;3.53;;
70981;SDS011;58640;51.320;9.456;2023-02-13T00:31:48;5.45;;;3.58;;
70981;SDS011;58640;51.320;9.456;2023-02-13T00:34:13;5.40;;;3.60;;
70981;SDS011;58640;51.320;9.456;2023-02-13T00:36:39;7.43;;;3.50;;
70981;SDS011;58640;51.320;9.456;2023-02-13T00:39:04;4.57;;;3.40;;
70981;SDS011;58640;51.320;9.456;2023-02-13T00:41:30;4.32;;;3.25;;
70981;SDS011;58640;51.320;9.456;2023-02-13T00:43:55;5.47;;;3.42;;
70981;SDS011;58640;51.320;9.456;2023-02-13T00:46:20;4.82;;;3.40;;
70981;SDS011;58640;51.320;9.456;2023-02-13T00:48:46;4.53;;;3.10;;
70981;SDS011;58640;51.320;9.456;2023-02-13T00:51:11;5.97;;;3.22;;
70981;SDS011;58640;51.320;9.456;2023-02-13T00:53:37;4.60;;;3.20;;
70981;SDS011;58640;51.320;9.456;2023-02-13T00:56:03;4.55;;;3.15;;
70981;SDS011;58640;51.320;9.456;2023-02-13T00:58:29;6.57;;;3.20;;
70981;SDS011;58640;51.320;9.456;2023-02-13T01:00:54;4.38;;;3.25;;
70981;SDS011;58640;51.320;9.456;2023-02-13T01:03:20;5.00;;;3.45;;
70981;SDS011;58640;51.320;9.456;2023-02-13T01:05:46;3.92;;;2.88;;
70981;SDS011;58640;51.320;9.456;2023-02-13T01:08:12;4.18;;;3.05;;
70981;SDS011;58640;51.320;9.456;2023-02-13T01:10:39;3.80;;;2.90;;
70981;SDS011;58640;51.320;9.456;2023-02-13T01:13:05;5.30;;;3.50;;
70981;SDS011;58640;51.320;9.456;2023-02-13T01:15:30;6.60;;;3.60;;
70981;SDS011;58640;51.320;9.456;2023-02-13T01:17:56;5.88;;;3.75;;
70981;SDS011;58640;51.320;9.456;2023-02-13T01:20:22;7.13;;;3.42;;
70981;SDS011;58640;51.320;9.456;2023-02-13T01:22:48;4.97;;;3.45;;
70981;SDS011;58640;51.320;9.456;2023-02-13T01:25:14;5.35;;;3.22;;
70981;SDS011;58640;51.320;9.456;2023-02-13T01:27:40;5.15;;;3.20;;
70981;SDS011;58640;51.320;9.456;2023-02-13T01:30:05;6.10;;;3.47;;
70981;SDS011;58640;51.320;9.456;2023-02-13T01:32:37;6.03;;;4.22;;
70981;SDS011;58640;51.320;9.456;2023-02-13T01:35:07;4.88;;;3.50;;
70981;SDS011;58640;51.320;9.456;2023-02-13T01:37:33;5.30;;;3.35;;
70981;SDS011;58640;51.320;9.456;2023-02-13T01:39:58;8.48;;;3.42;;
70981;SDS011;58640;51.320;9.456;2023-02-13T01:42:25;5.35;;;3.45;;
70981;SDS011;58640;51.320;9.456;2023-02-13T01:44:56;4.68;;;3.17;;
70981;SDS011;58640;51.320;9.456;2023-02-13T01:47:43;3.80;;;2.85;;
70981;SDS011;58640;51.320;9.456;2023-02-13T01:50:14;4.50;;;3.22;;
70981;SDS011;58640;51.320;9.456;2023-02-13T01:52:46;3.55;;;2.78;;
70981;SDS011;58640;51.320;9.456;2023-02-13T01:55:15;4.50;;;3.30;;
70981;SDS011;58640;51.320;9.456;2023-02-13T01:57:41;5.13;;;2.88;;
70981;SDS011;58640;51.320;9.456;2023-02-13T02:00:11;4.63;;;3.40;;
70981;SDS011;58640;51.320;9.456;2023-02-13T02:02:40;5.05;;;3.22;;
70981;SDS011;58640;51.320;9.456;2023-02-13T02:05:09;5.90;;;3.65;;
70981;SDS011;58640;51.320;9.456;2023-02-13T02:07:36;6.10;;;3.83;;
70981;SDS011;58640;51.320;9.456;2023-02-13T02:10:07;5.40;;;3.60;;
70981;SDS011;58640;51.320;9.456;2023-02-13T02:15:11;6.28;;;3.97;;
70981;SDS011;58640;51.320;9.456;2023-02-13T02:17:37;3.83;;;3.25;;
70981;SDS011;58640;51.320;9.456;2023-02-13T02:23:05;7.13;;;3.97;;
70981;SDS011;58640;51.320;9.456;2023-02-13T02:26:06;5.72;;;3.75;;
70981;SDS011;58640;51.320;9.456;2023-02-13T02:45:18;7.03;;;4.60;;
70981;SDS011;58640;51.320;9.456;2023-02-13T02:47:58;4.10;;;3.17;;
70981;SDS011;58640;51.320;9.456;2023-02-13T02:50:49;4.38;;;3.10;;
70981;SDS011;58640;51.320;9.456;2023-02-13T02:56:13;4.32;;;3.40;;
70981;SDS011;58640;51.320;9.456;2023-02-13T03:01:44;4.50;;;2.83;;
70981;SDS011;58640;51.320;9.456;2023-02-13T03:04:31;4.57;;;2.47;;
70981;SDS011;58640;51.320;9.456;2023-02-13T03:07:19;4.30;;;2.63;;
70981;SDS011;58640;51.320;9.456;2023-02-13T03:09:50;3.42;;;2.80;;
70981;SDS011;58640;51.320;9.456;2023-02-13T03:13:00;3.38;;;2.60;;
70981;SDS011;58640;51.320;9.456;2023-02-13T03:15:47;3.00;;;2.10;;
70981;SDS011;58640;51.320;9.456;2023-02-13T03:18:35;2.67;;;2.47;;
70981;SDS011;58640;51.320;9.456;2023-02-13T03:24:15;3.72;;;2.70;;
70981;SDS011;58640;51.320;9.456;2023-02-13T03:30:07;3.90;;;2.42;;
70981;SDS011;58640;51.320;9.456;2023-02-13T03:36:32;3.85;;;2.85;;
70981;SDS011;58640;51.320;9.456;2023-02-13T03:39:08;2.75;;;2.30;;
70981;SDS011;58640;51.320;9.456;2023-02-13T03:41:57;5.50;;;3.13;;
70981;SDS011;58640;51.320;9.456;2023-02-13T03:44:55;2.85;;;2.28;;
70981;SDS011;58640;51.320;9.456;2023-02-13T03:47:48;3.92;;;2.63;;
70981;SDS011;58640;51.320;9.456;2023-02-13T03:50:17;4.80;;;3.20;;
70981;SDS011;58640;51.320;9.456;2023-02-13T03:52:45;4.30;;;2.70;;
70981;SDS011;58640;51.320;9.456;2023-02-13T03:55:33;2.80;;;2.47;;
70981;SDS011;58640;51.320;9.456;2023-02-13T03:58:25;5.35;;;2.60;;
70981;SDS011;58640;51.320;9.456;2023-02-13T04:01:14;1.92;;;1.73;;
70981;SDS011;58640;51.320;9.456;2023-02-13T04:03:50;2.00;;;1.75;;
70981;SDS011;58640;51.320;9.456;2023-02-13T04:09:31;1.58;;;1.48;;
70981;SDS011;58640;51.320;9.456;2023-02-13T04:14:38;1.85;;;1.70;;
70981;SDS011;58640;51.320;9.456;2023-02-13T04:17:15;2.42;;;2.17;;
70981;SDS011;58640;51.320;9.456;2023-02-13T04:19:45;2.55;;;2.08;;
70981;SDS011;58640;51.320;9.456;2023-02-13T04:22:11;3.58;;;2.70;;
70981;SDS011;58640;51.320;9.456;2023-02-13T04:24:37;3.30;;;2.47;;
70981;SDS011;58640;51.320;9.456;2023-02-13T04:27:02;3.35;;;2.85;;
70981;SDS011;58640;51.320;9.456;2023-02-13T04:29:28;4.70;;;3.13;;
70981;SDS011;58640;51.320;9.456;2023-02-13T04:31:53;4.82;;;3.47;;
70981;SDS011;58640;51.320;9.456;2023-02-13T04:34:19;4.65;;;3.08;;
70981;SDS011;58640;51.320;9.456;2023-02-13T04:36:44;5.75;;;3.50;;
70981;SDS011;58640;51.320;9.456;2023-02-13T04:39:10;6.47;;;3.38;;
70981;SDS011;58640;51.320;9.456;2023-02-13T04:41:36;6.10;;;2.80;;
70981;SDS011;58640;51.320;9.456;2023-02-13T04:44:01;3.70;;;2.90;;
70981;SDS011;58640;51.320;9.456;2023-02-13T04:46:27;5.25;;;3.30;;
70981;SDS011;58640;51.320;9.456;2023-02-13T04:48:52;4.75;;;3.38;;
70981;SDS011;58640;51.320;9.456;2023-02-13T04:51:17;3.75;;;2.50;;
70981;SDS011;58640;51.320;9.456;2023-02-13T04:53:43;4.13;;;2.83;;
70981;SDS011;58640;51.320;9.456;2023-02-13T04:56:09;4.28;;;2.70;;
70981;SDS011;58640;51.320;9.456;2023-02-13T04:58:34;3.15;;;2.67;;
70981;SDS011;58640;51.320;9.456;2023-02-13T05:01:00;3.78;;;2.50;;
70981;SDS011;58640;51.320;9.456;2023-02-13T05:03:25;3.03;;;2.30;;
70981;SDS011;58640;51.320;9.456;2023-02-13T05:05:50;3.28;;;2.50;;
70981;SDS011;58640;51.320;9.456;2023-02-13T05:08:16;3.35;;;2.20;;
70981;SDS011;58640;51.320;9.456;2023-02-13T05:10:41;2.83;;;2.50;;
70981;SDS011;58640;51.320;9.456;2023-02-13T05:13:07;2.65;;;2.33;;
70981;SDS011;58640;51.320;9.456;2023-02-13T05:15:32;2.92;;;2.20;;
70981;SDS011;58640;51.320;9.456;2023-02-13T05:17:57;2.75;;;2.50;;
70981;SDS011;58640;51.320;9.456;2023-02-13T05:20:23;3.60;;;2.60;;
70981;SDS011;58640;51.320;9.456;2023-02-13T05:22:49;4.28;;;3.08;;
70981;SDS011;58640;51.320;9.456;2023-02-13T05:25:34;3.95;;;2.92;;
70981;SDS011;58640;51.320;9.456;2023-02-13T05:28:02;3.67;;;3.00;;
70981;SDS011;58640;51.320;9.456;2023-02-13T05:30:28;3.28;;;2.83;;
70981;SDS011;58640;51.320;9.456;2023-02-13T05:32:54;4.47;;;2.88;;
70981;SDS011;58640;51.320;9.456;2023-02-13T05:35:22;3.63;;;2.85;;
70981;SDS011;58640;51.320;9.456;2023-02-13T05:37:48;4.70;;;2.95;;
70981;SDS011;58640;51.320;9.456;2023-02-13T05:40:14;4.15;;;2.85;;
70981;SDS011;58640;51.320;9.456;2023-02-13T05:42:40;5.18;;;3.60;;
70981;SDS011;58640;51.320;9.456;2023-02-13T05:45:06;4.13;;;3.17;;
70981;SDS011;58640;51.320;9.456;2023-02-13T05:47:32;5.43;;;3.42;;
70981;SDS011;58640;51.320;9.456;2023-02-13T05:49:57;6.28;;;3.45;;
70981;SDS011;58640;51.320;9.456;2023-02-13T05:52:23;5.20;;;3.25;;
70981;SDS011;58640;51.320;9.456;2023-02-13T05:54:48;5.90;;;3.40;;
70981;SDS011;58640;51.320;9.456;2023-02-13T05:57:13;6.75;;;4.28;;
70981;SDS011;58640;51.320;9.456;2023-02-13T05:59:39;6.90;;;3.90;;
70981;SDS011;58640;51.320;9.456;2023-02-13T06:02:04;7.35;;;3.85;;
70981;SDS011;58640;51.320;9.456;2023-02-13T06:04:29;6.05;;;3.90;;
70981;SDS011;58640;51.320;9.456;2023-02-13T06:06:55;5.93;;;3.65;;
70981;SDS011;58640;51.320;9.456;2023-02-13T06:09:20;12.20;;;4.47;;
70981;SDS011;58640;51.320;9.456;2023-02-13T06:11:46;5.88;;;3.90;;
70981;SDS011;58640;51.320;9.456;2023-02-13T06:14:11;5.57;;;3.55;;
70981;SDS011;58640;51.320;9.456;2023-02-13T06:16:38;6.30;;;4.28;;
70981;SDS011;58640;51.320;9.456;2023-02-13T06:19:04;6.38;;;3.75;;
70981;SDS011;58640;51.320;9.456;2023-02-13T06:21:29;6.93;;;4.35;;
70981;SDS011;58640;51.320;9.456;2023-02-13T06:23:54;6.70;;;4.25;;
70981;SDS011;58640;51.320;9.456;2023-02-13T06:26:20;7.97;;;3.92;;
70981;SDS011;58640;51.320;9.456;2023-02-13T06:28:45;6.55;;;3.85;;
70981;SDS011;58640;51.320;9.456;2023-02-13T06:31:10;6.82;;;4.10;;
70981;SDS011;58640;51.320;9.456;2023-02-13T06:33:36;7.40;;;4.97;;
70981;SDS011;58640;51.320;9.456;2023-02-13T06:36:01;6.60;;;4.20;;
70981;SDS011;58640;51.320;9.456;2023-02-13T06:38:27;7.50;;;4.35;;
70981;SDS011;58640;51.320;9.456;2023-02-13T06:40:52;6.82;;;3.97;;
70981;SDS011;58640;51.320;9.456;2023-02-13T06:43:25;6.47;;;3.63;;
70981;SDS011;58640;51.320;9.456;2023-02-13T06:45:50;9.48;;;4.70;;
70981;SDS011;58640;51.320;9.456;2023-02-13T06:48:17;7.38;;;4.03;;
70981;SDS011;58640;51.320;9.456;2023-02-13T06:50:43;7.03;;;4.30;;
70981;SDS011;58640;51.320;9.456;2023-02-13T06:53:08;10.00;;;4.20;;
70981;SDS011;58640;51.320;9.456;2023-02-13T06:55:34;6.60;;;4.25;;
70981;SDS011;58640;51.320;9.456;2023-02-13T06:57:59;7.97;;;4.38;;
70981;SDS011;58640;51.320;9.456;2023-02-13T07:00:25;7.07;;;4.63;;
70981;SDS011;58640;51.320;9.456;2023-02-13T07:02:50;7.80;;;5.05;;
70981;SDS011;58640;51.320;9.456;2023-02-13T07:05:16;9.05;;;4.78;;
70981;SDS011;58640;51.320;9.456;2023-02-13T07:07:42;10.70;;;5.63;;
70981;SDS011;58640;51.320;9.456;2023-02-13T07:10:08;8.60;;;5.05;;
70981;SDS011;58640;51.320;9.456;2023-02-13T07:12:36;9.32;;;5.47;;
70981;SDS011;58640;51.320;9.456;2023-02-13T07:15:02;9.23;;;6.07;;
70981;SDS011;58640;51.320;9.456;2023-02-13T07:17:29;8.90;;;5.10;;
70981;SDS011;58640;51.320;9.456;2023-02-13T07:19:55;9.90;;;5.38;;
70981;SDS011;58640;51.320;9.456;2023-02-13T07:22:20;10.48;;;5.43;;
70981;SDS011;58640;51.320;9.456;2023-02-13T07:24:46;12.43;;;6.13;;
70981;SDS011;58640;51.320;9.456;2023-02-13T07:27:11;9.45;;;5.35;;
70981;SDS011;58640;51.320;9.456;2023-02-13T07:29:36;8.98;;;5.60;;
70981;SDS011;58640;51.320;9.456;2023-02-13T07:32:02;9.13;;;5.57;;
70981;SDS011;58640;51.320;9.456;2023-02-13T07:34:27;10.82;;;6.43;;
70981;SDS011;58640;51.320;9.456;2023-02-13T07:36:52;13.45;;;6.30;;
70981;SDS011;58640;51.320;9.456;2023-02-13T07:39:18;11.63;;;6.38;;
70981;SDS011;58640;51.320;9.456;2023-02-13T07:41:43;11.02;;;6.65;;
70981;SDS011;58640;51.320;9.456;2023-02-13T07:44:08;12.80;;;6.70;;
70981;SDS011;58640;51.320;9.456;2023-02-13T07:46:34;11.88;;;7.05;;
70981;SDS011;58640;51.320;9.456;2023-02-13T07:48:59;14.63;;;6.78;;
70981;SDS011;58640;51.320;9.456;2023-02-13T07:51:25;19.42;;;10.52;;
70981;SDS011;58640;51.320;9.456;2023-02-13T07:53:51;14.52;;;8.30;;
70981;SDS011;58640;51.320;9.456;2023-02-13T07:56:16;16.55;;;7.97;;
70981;SDS011;58640;51.320;9.456;2023-02-13T07:58:42;15.38;;;8.90;;
70981;SDS011;58640;51.320;9.456;2023-02-13T08:01:09;17.05;;;8.88;;
70981;SDS011;58640;51.320;9.456;2023-02-13T08:03:36;19.10;;;9.48;;
70981;SDS011;58640;51.320;9.456;2023-02-13T08:06:02;17.10;;;8.77;;
70981;SDS011;58640;51.320;9.456;2023-02-13T08:08:28;18.23;;;9.65;;
70981;SDS011;58640;51.320;9.456;2023-02-13T08:10:53;22.67;;;11.40;;
70981;SDS011;58640;51.320;9.456;2023-02-13T08:13:38;18.88;;;10.32;;
70981;SDS011;58640;51.320;9.456;2023-02-13T08:16:04;20.08;;;10.07;;
70981;SDS011;58640;51.320;9.456;2023-02-13T08:18:30;15.70;;;9.63;;
70981;SDS011;58640;51.320;9.456;2023-02-13T08:20:55;19.30;;;9.95;;
70981;SDS011;58640;51.320;9.456;2023-02-13T08:23:20;19.52;;;9.23;;
70981;SDS011;58640;51.320;9.456;2023-02-13T08:25:46;19.38;;;10.60;;
70981;SDS011;58640;51.320;9.456;2023-02-13T08:28:13;15.15;;;9.00;;
70981;SDS011;58640;51.320;9.456;2023-02-13T08:30:38;18.88;;;9.82;;
70981;SDS011;58640;51.320;9.456;2023-02-13T08:33:04;17.15;;;9.60;;
70981;SDS011;58640;51.320;9.456;2023-02-13T08:35:29;19.02;;;9.85;;
70981;SDS011;58640;51.320;9.456;2023-02-13T08:37:55;14.48;;;8.48;;
70981;SDS011;58640;51.320;9.456;2023-02-13T08:40:21;17.25;;;9.48;;
70981;SDS011;58640;51.320;9.456;2023-02-13T08:42:46;15.45;;;8.70;;
70981;SDS011;58640;51.320;9.456;2023-02-13T08:45:11;17.30;;;9.80;;
70981;SDS011;58640;51.320;9.456;2023-02-13T08:47:37;16.33;;;9.57;;
70981;SDS011;58640;51.320;9.456;2023-02-13T08:50:03;17.70;;;9.82;;
70981;SDS011;58640;51.320;9.456;2023-02-13T08:52:30;20.27;;;9.60;;
70981;SDS011;58640;51.320;9.456;2023-02-13T08:54:55;20.70;;;11.50;;
70981;SDS011;58640;51.320;9.456;2023-02-13T08:57:20;19.90;;;10.77;;
70981;SDS011;58640;51.320;9.456;2023-02-13T08:59:46;18.00;;;9.48;;
70981;SDS011;58640;51.320;9.456;2023-02-13T09:02:11;14.75;;;9.13;;
70981;SDS011;58640;51.320;9.456;2023-02-13T09:04:37;13.18;;;8.73;;
70981;SDS011;58640;51.320;9.456;2023-02-13T09:07:02;13.98;;;8.60;;
70981;SDS011;58640;51.320;9.456;2023-02-13T09:09:28;11.75;;;7.70;;
70981;SDS011;58640;51.320;9.456;2023-02-13T09:11:53;11.75;;;7.50;;
70981;SDS011;58640;51.320;9.456;2023-02-13T09:14:21;10.80;;;7.00;;
70981;SDS011;58640;51.320;9.456;2023-02-13T09:16:50;11.23;;;7.90;;
70981;SDS011;58640;51.320;9.456;2023-02-13T09:19:15;12.27;;;7.88;;
70981;SDS011;58640;51.320;9.456;2023-02-13T09:21:40;14.30;;;8.18;;
70981;SDS011;58640;51.320;9.456;2023-02-13T09:24:06;13.80;;;8.38;;
70981;SDS011;58640;51.320;9.456;2023-02-13T09:26:32;13.18;;;8.82;;
70981;SDS011;58640;51.320;9.456;2023-02-13T09:28:58;12.73;;;8.27;;
70981;SDS011;58640;51.320;9.456;2023-02-13T09:31:23;10.85;;;7.57;;
70981;SDS011;58640;51.320;9.456;2023-02-13T09:33:49;14.38;;;8.43;;
70981;SDS011;58640;51.320;9.456;2023-02-13T09:36:18;14.25;;;8.70;;
70981;SDS011;58640;51.320;9.456;2023-02-13T09:38:47;15.15;;;9.15;;
70981;SDS011;58640;51.320;9.456;2023-02-13T09:41:22;16.02;;;9.63;;
70981;SDS011;58640;51.320;9.456;2023-02-13T09:46:33;12.25;;;7.68;;
70981;SDS011;58640;51.320;9.456;2023-02-13T09:49:04;12.93;;;8.88;;
70981;SDS011;58640;51.320;9.456;2023-02-13T09:51:32;11.48;;;8.02;;
70981;SDS011;58640;51.320;9.456;2023-02-13T09:53:59;14.43;;;8.52;;
70981;SDS011;58640;51.320;9.456;2023-02-13T09:59:14;17.20;;;8.63;;
70981;SDS011;58640;51.320;9.456;2023-02-13T10:02:16;12.63;;;7.82;;
70981;SDS011;58640;51.320;9.456;2023-02-13T10:16:09;12.50;;;8.05;;
70981;SDS011;58640;51.320;9.456;2023-02-13T10:18:52;16.15;;;8.73;;
70981;SDS011;58640;51.320;9.456;2023-02-13T10:21:28;16.98;;;9.23;;
70981;SDS011;58640;51.320;9.456;2023-02-13T10:23:58;12.75;;;8.38;;
70981;SDS011;58640;51.320;9.456;2023-02-13T10:26:30;12.65;;;8.32;;
70981;SDS011;58640;51.320;9.456;2023-02-13T10:29:22;13.70;;;7.97;;
70981;SDS011;58640;51.320;9.456;2023-02-13T10:32:40;11.40;;;7.53;;
70981;SDS011;58640;51.320;9.456;2023-02-13T10:35:21;12.85;;;8.70;;
70981;SDS011;58640;51.320;9.456;2023-02-13T10:37:56;16.02;;;8.15;;
70981;SDS011;58640;51.320;9.456;2023-02-13T10:40:26;12.35;;;7.95;;
70981;SDS011;58640;51.320;9.456;2023-02-13T10:42:59;14.95;;;9.13;;
70981;SDS011;58640;51.320;9.456;2023-02-13T10:45:48;12.27;;;7.93;;
70981;SDS011;58640;51.320;9.456;2023-02-13T10:48:25;12.07;;;8.18;;
70981;SDS011;58640;51.320;9.456;2023-02-13T10:57:05;12.30;;;8.43;;
70981;SDS011;58640;51.320;9.456;2023-02-13T10:59:45;14.93;;;8.27;;
70981;SDS011;58640;51.320;9.456;2023-02-13T11:05:12;14.63;;;8.35;;
70981;SDS011;58640;51.320;9.456;2023-02-13T11:07:42;14.75;;;8.38;;
70981;SDS011;58640;51.320;9.456;2023-02-13T11:10:22;13.30;;;8.10;;
70981;SDS011;58640;51.320;9.456;2023-02-13T11:12:50;11.32;;;7.65;;
70981;SDS011;58640;51.320;9.456;2023-02-13T11:15:24;13.25;;;7.10;;
70981;SDS011;58640;51.320;9.456;2023-02-13T11:17:55;12.00;;;7.60;;
70981;SDS011;58640;51.320;9.456;2023-02-13T11:20:37;11.05;;;7.72;;
70981;SDS011;58640;51.320;9.456;2023-02-13T11:23:14;13.75;;;7.30;;
70981;SDS011;58640;51.320;9.456;2023-02-13T11:25:41;13.68;;;8.23;;
70981;SDS011;58640;51.320;9.456;2023-02-13T11:28:19;20.40;;;9.85;;
70981;SDS011;58640;51.320;9.456;2023-02-13T11:30:45;12.07;;;7.93;;
70981;SDS011;58640;51.320;9.456;2023-02-13T11:35:40;12.57;;;8.05;;
70981;SDS011;58640;51.320;9.456;2023-02-13T11:40:34;12.65;;;7.63;;
70981;SDS011;58640;51.320;9.456;2023-02-13T11:42:59;13.45;;;7.15;;
70981;SDS011;58640;51.320;9.456;2023-02-13T11:45:24;13.63;;;8.32;;
70981;SDS011;58640;51.320;9.456;2023-02-13T11:47:50;13.90;;;7.95;;
70981;SDS011;58640;51.320;9.456;2023-02-13T11:50:18;14.35;;;8.10;;
70981;SDS011;58640;51.320;9.456;2023-02-13T11:53:15;11.52;;;7.43;;
70981;SDS011;58640;51.320;9.456;2023-02-13T11:58:37;9.90;;;6.88;;
70981;SDS011;58640;51.320;9.456;2023-02-13T12:01:07;10.68;;;7.40;;
70981;SDS011;58640;51.320;9.456;2023-02-13T12:03:33;9.98;;;6.85;;
70981;SDS011;58640;51.320;9.456;2023-02-13T12:06:01;15.20;;;7.80;;
70981;SDS011;58640;51.320;9.456;2023-02-13T12:08:27;14.15;;;8.13;;
70981;SDS011;58640;51.320;9.456;2023-02-13T12:10:53;11.73;;;7.85;;
70981;SDS011;58640;51.320;9.456;2023-02-13T12:13:24;11.48;;;7.95;;
70981;SDS011;58640;51.320;9.456;2023-02-13T12:15:57;11.88;;;7.78;;
70981;SDS011;58640;51.320;9.456;2023-02-13T12:20:56;12.00;;;7.68;;
70981;SDS011;58640;51.320;9.456;2023-02-13T12:29:30;13.40;;;7.53;;
70981;SDS011;58640;51.320;9.456;2023-02-13T12:45:59;12.27;;;8.00;;
70981;SDS011;58640;51.320;9.456;2023-02-13T12:48:50;11.63;;;7.80;;
70981;SDS011;58640;51.320;9.456;2023-02-13T13:00:00;12.07;;;7.00;;
70981;SDS011;58640;51.320;9.456;2023-02-13T13:10:32;11.88;;;6.97;;
70981;SDS011;58640;51.320;9.456;2023-02-13T13:21:00;12.00;;;7.13;;
70981;SDS011;58640;51.320;9.456;2023-02-13T13:23:39;15.95;;;7.85;;
70981;SDS011;58640;51.320;9.456;2023-02-13T13:28:41;12.23;;;7.05;;
70981;SDS011;58640;51.320;9.456;2023-02-13T13:31:10;10.45;;;6.88;;
70981;SDS011;58640;51.320;9.456;2023-02-13T13:33:38;10.98;;;6.88;;
70981;SDS011;58640;51.320;9.456;2023-02-13T13:36:15;11.68;;;7.18;;
70981;SDS011;58640;51.320;9.456;2023-02-13T13:41:49;11.50;;;7.57;;
70981;SDS011;58640;51.320;9.456;2023-02-13T13:49:53;11.75;;;7.18;;
70981;SDS011;58640;51.320;9.456;2023-02-13T13:52:21;12.40;;;7.28;;
70981;SDS011;58640;51.320;9.456;2023-02-13T13:54:47;11.77;;;7.45;;
70981;SDS011;58640;51.320;9.456;2023-02-13T13:57:22;10.43;;;7.22;;
70981;SDS011;58640;51.320;9.456;2023-02-13T14:07:43;12.95;;;7.13;;
70981;SDS011;58640;51.320;9.456;2023-02-13T14:17:59;10.65;;;6.50;;
70981;SDS011;58640;51.320;9.456;2023-02-13T14:21:01;10.20;;;6.68;;
70981;SDS011;58640;51.320;9.456;2023-02-13T14:31:22;7.95;;;5.53;;
70981;SDS011;58640;51.320;9.456;2023-02-13T14:34:00;10.23;;;6.43;;
70981;SDS011;58640;51.320;9.456;2023-02-13T14:36:39;10.60;;;6.25;;
70981;SDS011;58640;51.320;9.456;2023-02-13T14:39:15;11.02;;;6.22;;
70981;SDS011;58640;51.320;9.456;2023-02-13T14:46:56;10.43;;;6.32;;
70981;SDS011;58640;51.320;9.456;2023-02-13T14:49:34;10.18;;;5.90;;
70981;SDS011;58640;51.320;9.456;2023-02-13T14:52:04;8.27;;;5.13;;
70981;SDS011;58640;51.320;9.456;2023-02-13T14:54:49;11.52;;;7.10;;
70981;SDS011;58640;51.320;9.456;2023-02-13T14:57:28;11.30;;;7.20;;
70981;SDS011;58640;51.320;9.456;2023-02-13T15:00:00;9.35;;;6.07;;
70981;SDS011;58640;51.320;9.456;2023-02-13T15:02:34;11.70;;;6.97;;
70981;SDS011;58640;51.320;9.456;2023-02-13T15:05:06;9.45;;;6.22;;
70981;SDS011;58640;51.320;9.456;2023-02-13T15:07:39;10.90;;;5.78;;
70981;SDS011;58640;51.320;9.456;2023-02-13T15:12:41;8.98;;;6.00;;
70981;SDS011;58640;51.320;9.456;2023-02-13T15:15:26;8.15;;;5.93;;
70981;SDS011;58640;51.320;9.456;2023-02-13T15:17:57;11.88;;;6.25;;
70981;SDS011;58640;51.320;9.456;2023-02-13T15:20:26;15.02;;;8.50;;
70981;SDS011;58640;51.320;9.456;2023-02-13T15:22:54;9.55;;;6.47;;
70981;SDS011;58640;51.320;9.456;2023-02-13T15:25:22;10.57;;;5.78;;
70981;SDS011;58640;51.320;9.456;2023-02-13T15:27:53;9.02;;;5.95;;
70981;SDS011;58640;51.320;9.456;2023-02-13T15:33:00;10.10;;;6.05;;
70981;SDS011;58640;51.320;9.456;2023-02-13T15:35:35;6.65;;;4.95;;
70981;SDS011;58640;51.320;9.456;2023-02-13T15:40:48;12.07;;;5.95;;
70981;SDS011;58640;51.320;9.456;2023-02-13T15:43:24;9.80;;;5.88;;
70981;SDS011;58640;51.320;9.456;2023-02-13T15:45:52;9.75;;;6.18;;
70981;SDS011;58640;51.320;9.456;2023-02-13T15:48:18;8.98;;;6.07;;
70981;SDS011;58640;51.320;9.456;2023-02-13T15:50:44;10.10;;;6.22;;
70981;SDS011;58640;51.320;9.456;2023-02-13T15:53:12;7.38;;;5.63;;
70981;SDS011;58640;51.320;9.456;2023-02-13T15:55:40;11.35;;;6.00;;
70981;SDS011;58640;51.320;9.456;2023-02-13T15:58:05;11.30;;;6.20;;
70981;SDS011;58640;51.320;9.456;2023-02-13T16:00:38;11.85;;;5.32;;
70981;SDS011;58640;51.320;9.456;2023-02-13T16:03:05;12.27;;;7.22;;
70981;SDS011;58640;51.320;9.456;2023-02-13T16:05:38;11.30;;;5.68;;
70981;SDS011;58640;51.320;9.456;2023-02-13T16:08:27;7.55;;;4.72;;
70981;SDS011;58640;51.320;9.456;2023-02-13T16:10:50;10.60;;;6.35;;
70981;SDS011;58640;51.320;9.456;2023-02-13T16:21:48;9.75;;;5.45;;
70981;SDS011;58640;51.320;9.456;2023-02-13T16:24:14;9.82;;;5.60;;
70981;SDS011;58640;51.320;9.456;2023-02-13T16:26:41;12.25;;;5.97;;
70981;SDS011;58640;51.320;9.456;2023-02-13T16:29:10;10.82;;;5.13;;
70981;SDS011;58640;51.320;9.456;2023-02-13T16:31:42;8.13;;;5.20;;
70981;SDS011;58640;51.320;9.456;2023-02-13T16:34:20;12.60;;;5.47;;
70981;SDS011;58640;51.320;9.456;2023-02-13T16:36:50;11.23;;;5.47;;
70981;SDS011;58640;51.320;9.456;2023-02-13T16:39:27;10.68;;;5.25;;
70981;SDS011;58640;51.320;9.456;2023-02-13T16:41:59;8.98;;;5.75;;
70981;SDS011;58640;51.320;9.456;2023-02-13T16:44:29;11.43;;;7.18;;
70981;SDS011;58640;51.320;9.456;2023-02-13T16:46:57;11.55;;;6.60;;
70981;SDS011;58640;51.320;9.456;2023-02-13T16:49:29;12.32;;;5.88;;
70981;SDS011;58640;51.320;9.456;2023-02-13T16:51:58;9.02;;;5.65;;
70981;SDS011;58640;51.320;9.456;2023-02-13T17:02:21;12.27;;;6.22;;
70981;SDS011;58640;51.320;9.456;2023-02-13T17:07:27;8.32;;;6.05;;
70981;SDS011;58640;51.320;9.456;2023-02-13T17:09:55;12.05;;;6.85;;
70981;SDS011;58640;51.320;9.456;2023-02-13T17:12:40;14.43;;;6.95;;
70981;SDS011;58640;51.320;9.456;2023-02-13T17:15:11;15.07;;;8.82;;
70981;SDS011;58640;51.320;9.456;2023-02-13T17:17:39;12.48;;;7.80;;
70981;SDS011;58640;51.320;9.456;2023-02-13T17:20:04;15.48;;;8.43;;
70981;SDS011;58640;51.320;9.456;2023-02-13T17:22:35;15.48;;;8.13;;
70981;SDS011;58640;51.320;9.456;2023-02-13T17:25:08;18.05;;;8.98;;
70981;SDS011;58640;51.320;9.456;2023-02-13T17:27:40;15.25;;;8.38;;
70981;SDS011;58640;51.320;9.456;2023-02-13T17:30:07;19.58;;;9.52;;
70981;SDS011;58640;51.320;9.456;2023-02-13T17:32:36;35.65;;;16.05;;
70981;SDS011;58640;51.320;9.456;2023-02-13T17:35:01;29.10;;;14.40;;
70981;SDS011;58640;51.320;9.456;2023-02-13T17:37:27;19.95;;;12.20;;
70981;SDS011;58640;51.320;9.456;2023-02-13T17:39:53;14.98;;;9.50;;
70981;SDS011;58640;51.320;9.456;2023-02-13T17:42:24;16.27;;;8.48;;
70981;SDS011;58640;51.320;9.456;2023-02-13T17:44:51;14.77;;;8.85;;
70981;SDS011;58640;51.320;9.456;2023-02-13T17:47:18;14.45;;;8.18;;
70981;SDS011;58640;51.320;9.456;2023-02-13T17:49:44;13.65;;;7.55;;
70981;SDS011;58640;51.320;9.456;2023-02-13T17:52:12;11.85;;;7.45;;
70981;SDS011;58640;51.320;9.456;2023-02-13T17:54:40;17.15;;;8.93;;
70981;SDS011;58640;51.320;9.456;2023-02-13T17:57:06;16.77;;;8.45;;
70981;SDS011;58640;51.320;9.456;2023-02-13T17:59:31;13.65;;;8.23;;
70981;SDS011;58640;51.320;9.456;2023-02-13T18:01:56;18.35;;;8.60;;
70981;SDS011;58640;51.320;9.456;2023-02-13T18:04:22;15.15;;;8.05;;
70981;SDS011;58640;51.320;9.456;2023-02-13T18:06:51;15.38;;;8.85;;